createdAt,value
2022-10-16T03:00:21.335Z,99861.22
2022-10-16T03:02:49.651Z,99866.09
2022-10-16T03:05:18.320Z,99864.66
2022-10-16T03:07:46.656Z,99880.22
2022-10-16T03:10:15.192Z,99873.16
2022-10-16T03:12:43.487Z,99882.88
2022-10-16T03:15:12.376Z,99881.09
2022-10-16T03:17:42.144Z,99881.91
2022-10-16T03:20:11.282Z,99881.97
2022-10-16T03:22:39.794Z,99880.88
2022-10-16T03:25:09.636Z,99885.22
2022-10-16T03:27:38.006Z,99890.44
2022-10-16T03:30:07.669Z,99890.44
2022-10-16T03:35:11.177Z,99898.34
2022-10-16T03:37:39.538Z,99895.72
2022-10-16T03:40:09.361Z,99890.56
2022-10-16T03:42:37.661Z,99883.72
2022-10-16T03:45:07.574Z,99892.16
2022-10-16T03:47:35.973Z,99900.16
2022-10-16T03:50:05.561Z,99910.56
2022-10-16T03:52:35.360Z,99913.31
2022-10-16T03:55:03.754Z,99902.03
2022-10-16T03:57:32.149Z,99901.25
2022-10-16T04:00:00.479Z,99886.34
2022-10-16T04:02:28.853Z,99899.38
2022-10-16T04:04:57.357Z,99898.47
2022-10-16T04:07:26.081Z,99895.09
2022-10-16T04:09:55.998Z,99898.53
2022-10-16T04:12:24.458Z,99894.06
2022-10-16T04:14:52.852Z,99898.41
2022-10-16T04:17:21.329Z,99895.91
2022-10-16T04:19:49.670Z,99909.88
2022-10-16T04:22:18.057Z,99912.50
2022-10-16T04:24:46.426Z,99918.56
2022-10-16T04:27:16.111Z,99918.66
2022-10-16T04:29:44.445Z,99924.72
2022-10-16T04:32:12.844Z,99920.34
2022-10-16T04:34:41.905Z,99912.75
2022-10-16T04:37:10.435Z,99919.00
2022-10-16T04:39:38.849Z,99917.22
2022-10-16T04:42:07.361Z,99921.50
2022-10-16T04:44:38.284Z,99924.13
2022-10-16T04:47:06.734Z,99918.84
2022-10-16T04:49:35.063Z,99930.16
2022-10-16T04:52:03.540Z,99932.72
2022-10-16T04:54:31.867Z,99924.88
2022-10-16T04:57:00.251Z,99924.06
2022-10-16T04:59:28.673Z,99915.41
2022-10-16T05:01:58.507Z,99918.00
2022-10-16T05:04:26.869Z,99922.34
2022-10-16T05:06:55.257Z,99924.06
2022-10-16T05:09:23.653Z,99931.91
2022-10-16T05:11:52.086Z,99925.75
2022-10-16T05:14:20.447Z,99930.03
2022-10-16T05:16:49.434Z,99936.97
2022-10-16T05:19:27.709Z,99935.25
2022-10-16T05:21:56.801Z,99936.03
2022-10-16T05:24:25.285Z,99942.19
2022-10-16T05:26:53.953Z,99948.16
2022-10-16T05:29:22.453Z,99941.28
2022-10-16T05:31:53.902Z,99949.13
2022-10-16T05:34:23.976Z,99942.06
2022-10-16T05:36:52.352Z,99924.06
2022-10-16T05:39:21.017Z,99915.53
2022-10-16T05:41:53.416Z,99912.31
2022-10-16T05:44:21.871Z,99914.69
2022-10-16T05:46:50.208Z,99915.53
2022-10-16T05:49:18.706Z,99922.47
2022-10-16T05:51:48.598Z,99930.19
2022-10-16T05:54:17.056Z,99939.69
2022-10-16T05:56:45.651Z,99943.97
2022-10-16T05:59:14.025Z,99948.34
2022-10-16T06:01:42.405Z,99960.38
2022-10-16T06:06:45.428Z,99973.41
2022-10-16T06:09:15.201Z,99978.44
2022-10-16T06:11:43.562Z,99970.50
2022-10-16T06:14:12.057Z,99975.75
2022-10-16T06:16:40.692Z,99973.13
2022-10-16T06:19:10.360Z,99978.53
2022-10-16T06:21:38.719Z,99975.16
2022-10-16T06:24:07.242Z,99984.66
2022-10-16T06:26:36.928Z,99978.53
2022-10-16T06:29:05.776Z,99986.44
2022-10-16T06:31:34.513Z,99985.41
2022-10-16T06:34:05.719Z,99986.22
2022-10-16T06:36:34.098Z,99992.09
2022-10-16T06:39:02.483Z,99986.94
2022-10-16T06:41:30.922Z,99989.31
2022-10-16T06:44:08.331Z,99992.84
2022-10-16T06:46:37.144Z,99986.91
2022-10-16T06:49:05.562Z,99989.41
2022-10-16T06:51:37.939Z,99984.91
2022-10-16T06:54:09.396Z,99987.50
2022-10-16T06:56:38.619Z,99996.03
2022-10-16T06:59:08.426Z,100002.84
2022-10-16T07:01:36.771Z,100006.41
2022-10-16T07:04:05.576Z,100007.00
2022-10-16T07:06:36.106Z,100005.31
2022-10-16T07:09:08.406Z,100010.38
2022-10-16T07:11:38.467Z,100007.84
2022-10-16T07:14:15.122Z,100013.06
2022-10-16T07:16:43.543Z,100025.19
2022-10-16T07:19:13.372Z,100024.94
2022-10-16T07:21:41.864Z,100034.50
2022-10-16T07:24:15.466Z,100029.13
2022-10-16T07:26:47.171Z,100029.72
2022-10-16T07:29:20.032Z,100032.19
2022-10-16T07:31:49.208Z,100042.66
2022-10-16T07:34:19.485Z,100061.72
2022-10-16T07:36:51.072Z,100059.09
2022-10-16T07:39:19.874Z,100064.34
2022-10-16T07:41:48.278Z,100061.69
2022-10-16T07:44:18.183Z,100065.19
2022-10-16T07:46:46.585Z,100072.16
2022-10-16T07:49:15.048Z,100083.38
2022-10-16T07:51:43.429Z,100083.47
2022-10-16T07:54:12.110Z,100092.16
2022-10-16T07:56:43.662Z,100083.25
2022-10-16T07:59:12.673Z,100083.47
2022-10-16T08:01:44.110Z,100092.59
2022-10-16T08:04:13.103Z,100088.94
2022-10-16T08:06:43.030Z,100095.13
2022-10-16T08:09:11.830Z,100103.34
2022-10-16T08:11:40.178Z,100106.72
2022-10-16T08:14:08.546Z,100121.41
2022-10-16T08:16:36.921Z,100123.28
2022-10-16T08:19:06.631Z,100126.00
2022-10-16T08:21:34.940Z,100122.38
2022-10-16T08:24:03.299Z,100124.81
2022-10-16T08:26:31.900Z,100120.50
2022-10-16T08:29:00.458Z,100123.22
2022-10-16T08:31:28.867Z,100131.91
2022-10-16T08:33:57.223Z,100135.28
2022-10-16T08:36:26.978Z,100144.19
2022-10-16T08:38:55.674Z,100141.44
2022-10-16T08:42:06.697Z,100149.53
2022-10-16T08:45:18.221Z,100154.56
2022-10-16T08:47:58.528Z,100155.50
2022-10-16T08:50:29.703Z,100161.59
2022-10-16T08:53:00.116Z,100166.94
2022-10-16T08:55:36.177Z,100174.00
2022-10-16T08:58:07.159Z,100175.13
2022-10-16T09:00:36.144Z,100174.22
2022-10-16T09:03:16.537Z,100177.88
2022-10-16T09:06:03.822Z,100173.00
2022-10-16T09:08:48.282Z,100189.63
2022-10-16T09:11:32.414Z,100193.91
2022-10-16T09:14:18.193Z,100192.16
2022-10-16T09:16:52.694Z,100196.56
2022-10-16T09:19:29.497Z,100195.72
2022-10-16T09:22:00.463Z,100204.31
2022-10-16T09:24:30.304Z,100206.06
2022-10-16T09:26:58.943Z,100206.00
2022-10-16T09:29:27.337Z,100211.31
2022-10-16T09:31:57.316Z,100218.91
2022-10-16T09:34:33.263Z,100228.50
2022-10-16T09:37:05.462Z,100226.81
2022-10-16T09:39:47.497Z,100239.09
2022-10-16T09:42:19.557Z,100242.53
2022-10-16T09:44:52.260Z,100244.22
2022-10-16T09:47:24.107Z,100246.91
2022-10-16T09:49:58.905Z,100241.88
2022-10-16T09:52:28.032Z,100244.31
2022-10-16T09:55:00.252Z,100249.47
2022-10-16T09:57:29.472Z,100244.16
2022-10-16T10:00:00.283Z,100243.13
2022-10-16T10:02:33.545Z,100249.94
2022-10-16T10:05:02.318Z,100255.84
2022-10-16T10:07:35.756Z,100255.78
2022-10-16T10:10:08.042Z,100253.88
2022-10-16T10:12:37.607Z,100254.72
2022-10-16T10:15:09.690Z,100253.47
2022-10-16T10:17:49.410Z,100246.19
2022-10-16T10:20:30.498Z,100242.19
2022-10-16T10:22:59.416Z,100245.94
2022-10-16T10:25:42.283Z,100239.19
2022-10-16T10:28:46.753Z,100243.94
2022-10-16T10:31:24.264Z,100233.78
2022-10-16T10:34:00.820Z,100240.97
2022-10-16T10:36:35.440Z,100243.28
2022-10-16T10:39:09.907Z,100247.06
2022-10-16T10:42:18.588Z,100244.22
2022-10-16T10:45:07.771Z,100241.22
2022-10-16T10:47:50.047Z,100236.44
2022-10-16T10:50:26.711Z,100240.59
2022-10-16T10:53:18.375Z,100240.84
2022-10-16T10:55:53.767Z,100248.97
2022-10-16T10:59:18.866Z,100248.91
2022-10-16T11:01:53.089Z,100243.88
2022-10-16T11:04:46.495Z,100245.94
2022-10-16T11:07:22.188Z,100237.84
2022-10-16T11:09:56.168Z,100236.84
2022-10-16T11:12:27.768Z,100232.59
2022-10-16T11:15:06.859Z,100237.78
2022-10-16T11:17:41.499Z,100237.88
2022-10-16T11:20:19.269Z,100230.91
2022-10-16T11:22:52.806Z,100240.13
2022-10-16T11:25:25.589Z,100240.59
2022-10-16T11:28:00.363Z,100241.22
2022-10-16T11:30:33.075Z,100245.84
2022-10-16T11:33:27.578Z,100245.34
2022-10-16T11:36:03.008Z,100245.84
2022-10-16T11:38:37.309Z,100249.03
2022-10-16T11:41:17.696Z,100245.25
2022-10-16T11:43:53.283Z,100246.31
2022-10-16T11:46:26.489Z,100241.56
2022-10-16T11:49:06.568Z,100238.16
2022-10-16T11:51:41.131Z,100242.69
2022-10-16T11:54:22.664Z,100249.00
2022-10-16T11:56:55.639Z,100244.69
2022-10-16T11:59:31.920Z,100241.91
